createdAt,value
2018-12-17T00:00:50.237Z,74.70
2018-12-17T00:04:56.396Z,74.90
2018-12-17T00:09:02.581Z,75.70
2018-12-17T00:13:07.748Z,77.40
2018-12-17T00:17:11.853Z,77.40
2018-12-17T00:21:15.939Z,77.70
2018-12-17T00:25:20.047Z,78.60
2018-12-17T00:29:24.131Z,76.90
2018-12-17T00:33:28.295Z,74.70
2018-12-17T00:37:32.457Z,77.60
2018-12-17T00:41:36.599Z,77.40
2018-12-17T00:45:40.682Z,80.10
2018-12-17T00:49:44.843Z,74.60
2018-12-17T00:53:49.016Z,75.20
2018-12-17T00:57:53.134Z,76.40
2018-12-17T01:01:58.417Z,73.70
2018-12-17T01:06:02.497Z,73.90
2018-12-17T01:10:07.924Z,74.00
2018-12-17T01:14:11.988Z,74.10
2018-12-17T01:18:16.082Z,75.10
2018-12-17T01:22:20.188Z,74.10
2018-12-17T01:26:24.547Z,74.60
2018-12-17T01:30:28.714Z,74.80
2018-12-17T01:34:32.830Z,75.10
2018-12-17T01:38:36.962Z,75.60
2018-12-17T01:42:41.053Z,75.50
2018-12-17T01:46:45.164Z,75.30
2018-12-17T01:50:49.257Z,76.10
2018-12-17T01:54:53.346Z,76.70
2018-12-17T01:58:57.461Z,79.70
2018-12-17T02:03:01.558Z,76.60
2018-12-17T02:07:05.691Z,79.50
2018-12-17T02:11:09.773Z,77.90
2018-12-17T02:15:13.936Z,79.30
2018-12-17T02:19:18.028Z,77.40
2018-12-17T02:23:22.098Z,78.00
2018-12-17T02:27:26.224Z,81.10
2018-12-17T02:31:30.306Z,79.70
2018-12-17T02:35:34.397Z,81.00
2018-12-17T02:39:38.485Z,80.50
2018-12-17T02:43:42.585Z,78.00
2018-12-17T02:47:46.667Z,78.30
2018-12-17T02:51:50.725Z,78.60
2018-12-17T02:55:54.813Z,80.30
2018-12-17T02:59:58.891Z,80.30
2018-12-17T03:04:02.982Z,76.10
2018-12-17T03:08:07.060Z,75.40
2018-12-17T03:12:11.177Z,78.50
2018-12-17T03:16:15.254Z,76.50
2018-12-17T03:20:19.505Z,79.50
2018-12-17T03:24:24.305Z,77.90
2018-12-17T03:28:28.388Z,75.30
2018-12-17T03:32:32.451Z,74.00
2018-12-17T03:36:36.705Z,76.60
2018-12-17T03:40:40.798Z,72.80
2018-12-17T03:44:44.940Z,74.30
2018-12-17T03:48:49.074Z,78.30
2018-12-17T03:52:53.195Z,77.90
2018-12-17T03:56:57.265Z,79.30
2018-12-17T04:01:01.441Z,81.90
2018-12-17T04:05:06.761Z,80.30
2018-12-17T04:09:10.859Z,79.10
2018-12-17T04:13:14.990Z,79.90
2018-12-17T04:17:19.166Z,77.20
2018-12-17T04:21:24.981Z,73.10
2018-12-17T04:25:29.088Z,73.60
2018-12-17T04:29:33.165Z,77.10
2018-12-17T04:33:37.294Z,76.20
2018-12-17T04:37:41.517Z,80.60
2018-12-17T04:41:45.579Z,79.20
2018-12-17T04:45:49.757Z,81.20
2018-12-17T04:49:53.851Z,80.80
2018-12-17T04:53:57.938Z,76.80
2018-12-17T04:58:02.196Z,77.60
2018-12-17T05:02:06.371Z,76.20
2018-12-17T05:06:10.520Z,77.70
2018-12-17T05:10:14.702Z,76.50
2018-12-17T05:14:18.840Z,77.10
2018-12-17T05:18:22.950Z,80.00
2018-12-17T05:22:27.036Z,77.90
2018-12-17T05:26:31.113Z,73.90
2018-12-17T05:35:02.330Z,81.10
2018-12-17T05:39:06.997Z,78.30
2018-12-17T05:43:11.086Z,78.40
2018-12-17T05:47:15.188Z,77.30
2018-12-17T05:51:19.275Z,77.50
2018-12-17T05:55:23.398Z,82.20
2018-12-17T05:59:28.668Z,74.40
2018-12-17T06:03:32.856Z,77.90
2018-12-17T06:07:36.995Z,79.60
2018-12-17T06:11:41.128Z,78.20
2018-12-17T06:15:45.293Z,77.00
2018-12-17T06:19:49.409Z,80.90
2018-12-17T06:23:53.461Z,77.20
2018-12-17T06:27:57.561Z,75.50
2018-12-17T06:32:01.648Z,79.20
2018-12-17T06:36:05.796Z,76.50
2018-12-17T06:40:10.434Z,77.60
2018-12-17T06:44:14.819Z,78.90
2018-12-17T06:48:18.918Z,78.20
2018-12-17T06:52:23.002Z,79.00
2018-12-17T06:56:27.180Z,79.60
2018-12-17T07:00:31.233Z,77.50
2018-12-17T07:04:35.318Z,74.70
2018-12-17T07:08:39.616Z,75.60
2018-12-17T07:12:43.686Z,79.60
2018-12-17T07:16:48.632Z,75.40
2018-12-17T07:20:52.738Z,79.40
2018-12-17T07:24:56.860Z,78.70
2018-12-17T07:29:00.933Z,74.30
2018-12-17T07:33:05.630Z,70.60
2018-12-17T07:37:11.267Z,70.40
2018-12-17T07:41:15.357Z,70.70
2018-12-17T07:45:19.424Z,75.20
2018-12-17T07:49:23.521Z,70.10
2018-12-17T07:53:27.622Z,73.90
2018-12-17T07:57:31.714Z,69.40
2018-12-17T08:01:35.901Z,67.80
2018-12-17T08:05:40.006Z,68.30
2018-12-17T08:09:44.262Z,68.80
2018-12-17T08:13:48.418Z,68.60
2018-12-17T08:22:37.821Z,68.60
2018-12-17T08:26:42.402Z,68.50
2018-12-17T08:30:47.365Z,68.10
2018-12-17T08:34:51.439Z,67.70
2018-12-17T08:38:55.520Z,67.40
2018-12-17T08:42:59.657Z,64.50
2018-12-17T08:47:03.854Z,64.80
2018-12-17T08:51:08.476Z,68.00
2018-12-17T08:55:12.788Z,67.90
2018-12-17T08:59:16.876Z,70.20
2018-12-17T09:03:20.933Z,71.00
2018-12-17T09:07:25.086Z,72.70
2018-12-17T09:11:29.213Z,72.00
2018-12-17T09:15:33.273Z,70.90
2018-12-17T09:19:37.357Z,72.10
2018-12-17T09:23:41.442Z,69.50
2018-12-17T09:27:45.639Z,70.30
2018-12-17T09:31:49.724Z,74.10
2018-12-17T09:35:53.913Z,70.00
2018-12-17T09:39:57.993Z,73.70
2018-12-17T09:44:03.773Z,74.30
2018-12-17T09:48:08.104Z,76.20
2018-12-17T09:52:12.249Z,74.40
2018-12-17T09:56:16.334Z,70.90
2018-12-17T10:00:25.414Z,68.60
2018-12-17T10:04:26.461Z,70.70
2018-12-17T10:08:30.559Z,71.90
2018-12-17T10:12:34.719Z,69.30
2018-12-17T10:16:38.850Z,70.80
2018-12-17T10:20:42.971Z,70.60
2018-12-17T10:24:47.081Z,70.50
2018-12-17T10:28:51.221Z,70.60
2018-12-17T10:32:55.328Z,66.70
2018-12-17T10:36:59.456Z,66.50
2018-12-17T10:41:03.596Z,65.80
2018-12-17T10:45:08.631Z,66.10
2018-12-17T10:49:12.712Z,66.20
2018-12-17T10:53:16.793Z,67.60
2018-12-17T10:57:21.976Z,65.50
2018-12-17T11:01:32.500Z,63.90
2018-12-17T11:09:58.557Z,65.20
2018-12-17T11:14:02.760Z,64.00
2018-12-17T11:18:06.901Z,62.70
2018-12-17T11:22:11.066Z,61.40
2018-12-17T11:26:15.186Z,58.20
2018-12-17T11:30:19.344Z,57.10
2018-12-17T11:34:23.437Z,56.70
2018-12-17T11:38:27.542Z,57.30
2018-12-17T11:42:31.646Z,57.40
2018-12-17T11:46:35.837Z,54.70
2018-12-17T11:50:39.904Z,56.60
2018-12-17T11:54:44.030Z,52.40
2018-12-17T11:58:48.179Z,57.30
2018-12-17T12:02:59.071Z,58.10
2018-12-17T12:07:00.389Z,59.20
2018-12-17T12:11:04.589Z,59.30
2018-12-17T12:15:08.750Z,61.20
2018-12-17T12:19:12.843Z,64.10
2018-12-17T12:23:17.021Z,64.70
2018-12-17T12:27:21.213Z,65.10
2018-12-17T12:31:25.312Z,65.20
2018-12-17T12:35:29.438Z,65.30
2018-12-17T12:39:33.653Z,62.80
2018-12-17T12:43:37.712Z,64.40
2018-12-17T12:47:41.849Z,64.90
2018-12-17T12:51:45.962Z,66.20
2018-12-17T12:55:50.070Z,66.30
2018-12-17T12:59:54.161Z,66.40
2018-12-17T13:03:58.308Z,66.00
2018-12-17T13:08:02.408Z,65.70
2018-12-17T13:12:06.548Z,66.50
2018-12-17T13:16:10.728Z,66.80
2018-12-17T13:20:14.908Z,66.50
2018-12-17T13:24:19.109Z,66.30
2018-12-17T13:28:23.210Z,66.90
2018-12-17T13:32:27.266Z,67.90
2018-12-17T13:36:31.472Z,68.20
2018-12-17T13:40:35.558Z,68.50
2018-12-17T13:44:39.648Z,68.30
2018-12-17T13:48:44.413Z,69.00
2018-12-17T13:52:48.473Z,70.10
2018-12-17T13:56:52.580Z,70.80
2018-12-17T14:00:56.647Z,71.20
2018-12-17T14:05:01.713Z,71.30
2018-12-17T14:09:06.794Z,70.70
2018-12-17T14:13:12.853Z,70.80
2018-12-17T14:17:22.325Z,71.30
2018-12-17T14:21:31.997Z,70.80
2018-12-17T14:25:36.207Z,70.30
2018-12-17T14:29:40.264Z,71.10
2018-12-17T14:33:44.365Z,70.50
2018-12-17T14:38:06.217Z,70.60
2018-12-17T14:42:10.374Z,70.40
2018-12-17T14:46:14.460Z,71.30
2018-12-17T14:50:18.648Z,70.60
2018-12-17T14:54:22.711Z,70.60
2018-12-17T14:58:26.801Z,69.80
2018-12-17T15:02:30.914Z,69.80
2018-12-17T15:06:35.109Z,69.60
2018-12-17T15:10:39.209Z,69.80
2018-12-17T15:14:43.333Z,69.80
2018-12-17T15:18:47.505Z,70.10
2018-12-17T15:22:51.650Z,70.10
2018-12-17T15:26:55.742Z,69.40
2018-12-17T15:30:59.855Z,69.50
2018-12-17T15:35:05.765Z,69.00
2018-12-17T15:39:09.857Z,68.80
2018-12-17T15:43:13.986Z,68.80
2018-12-17T15:47:18.077Z,68.70
2018-12-17T15:51:22.184Z,68.70
2018-12-17T15:55:26.246Z,68.80
2018-12-17T15:59:30.408Z,68.20
2018-12-17T16:03:34.462Z,67.80
2018-12-17T16:07:48.309Z,68.40
2018-12-17T16:11:52.401Z,68.50
2018-12-17T16:15:56.509Z,69.50
2018-12-17T16:20:00.613Z,70.80
2018-12-17T16:24:04.818Z,70.90
2018-12-17T16:28:08.913Z,71.50
2018-12-17T16:32:13.008Z,72.60
2018-12-17T16:36:17.136Z,73.70
2018-12-17T16:40:26.791Z,74.70
2018-12-17T16:44:48.629Z,75.00
2018-12-17T16:48:52.699Z,75.40
2018-12-17T16:52:56.797Z,75.60
2018-12-17T17:01:48.626Z,76.70
2018-12-17T17:10:48.477Z,75.70
2018-12-17T17:19:50.998Z,74.90
2018-12-17T17:28:48.455Z,74.00
2018-12-17T17:46:48.566Z,73.30
2018-12-17T17:50:52.674Z,73.10
2018-12-17T17:54:56.745Z,72.70
2018-12-17T17:59:00.825Z,72.70
2018-12-17T18:07:48.709Z,73.60
2018-12-17T18:11:52.829Z,73.80
2018-12-17T18:15:57.570Z,73.30
2018-12-17T18:20:02.684Z,73.70
2018-12-17T18:28:49.512Z,73.90
2018-12-17T18:32:53.610Z,73.80
2018-12-17T18:36:57.697Z,73.80
2018-12-17T18:41:01.859Z,73.40
2018-12-17T18:49:48.746Z,72.90
2018-12-17T18:53:53.698Z,73.30
2018-12-17T18:57:59.003Z,73.00
2018-12-17T19:02:03.246Z,73.70
2018-12-17T19:10:53.155Z,72.50
2018-12-17T19:14:57.322Z,72.90
2018-12-17T19:19:02.117Z,73.20
2018-12-17T19:23:06.257Z,72.70
2018-12-17T19:31:49.147Z,73.70
2018-12-17T19:35:54.054Z,74.10
2018-12-17T19:39:58.240Z,73.90
2018-12-17T19:44:03.414Z,73.60
2018-12-17T19:48:09.195Z,73.00
2018-12-17T19:52:18.672Z,74.30
2018-12-17T19:56:22.855Z,74.60
2018-12-17T20:00:48.509Z,75.10
2018-12-17T20:04:52.670Z,76.00
2018-12-17T20:08:58.714Z,77.00
2018-12-17T20:13:02.813Z,77.60
2018-12-17T20:21:21.702Z,78.40
2018-12-17T20:25:25.858Z,78.70
2018-12-17T20:29:29.941Z,78.60
2018-12-17T20:33:34.132Z,77.70
2018-12-17T20:37:38.302Z,76.90
2018-12-17T20:41:42.404Z,75.80
2018-12-17T20:45:46.494Z,76.20
2018-12-17T20:49:50.569Z,75.80
2018-12-17T20:53:54.679Z,76.60
2018-12-17T20:57:58.945Z,77.00
2018-12-17T21:02:03.348Z,77.30
2018-12-17T21:06:07.434Z,77.90
2018-12-17T21:10:11.785Z,78.10
2018-12-17T21:14:15.830Z,78.90
2018-12-17T21:18:19.914Z,79.10
2018-12-17T21:22:24.002Z,79.10
2018-12-17T21:26:28.154Z,79.10
2018-12-17T21:30:32.247Z,79.10
2018-12-17T21:34:37.422Z,79.00
2018-12-17T21:38:41.591Z,79.10
2018-12-17T21:42:45.678Z,79.20
2018-12-17T21:46:50.376Z,79.00
2018-12-17T21:50:54.463Z,79.00
2018-12-17T21:54:58.542Z,79.10
2018-12-17T21:59:02.786Z,78.70
2018-12-17T22:03:13.085Z,78.60
2018-12-17T22:07:13.028Z,78.50
2018-12-17T22:11:17.129Z,78.40
2018-12-17T22:15:21.291Z,78.40
2018-12-17T22:19:25.404Z,78.00
2018-12-17T22:23:29.464Z,78.40
2018-12-17T22:27:33.554Z,78.70
2018-12-17T22:31:37.718Z,78.50
2018-12-17T22:35:41.803Z,78.80
2018-12-17T22:39:45.879Z,78.20
2018-12-17T22:43:49.961Z,78.20
2018-12-17T22:47:54.048Z,78.80
2018-12-17T22:51:58.160Z,78.70
2018-12-17T22:56:02.284Z,78.50
2018-12-17T23:00:08.897Z,78.60
2018-12-17T23:04:15.934Z,78.60
2018-12-17T23:08:20.005Z,78.30
2018-12-17T23:12:42.174Z,78.70
2018-12-17T23:17:04.192Z,77.80
2018-12-17T23:21:08.499Z,76.80
2018-12-17T23:25:14.633Z,77.00
2018-12-17T23:29:18.738Z,77.60
2018-12-17T23:33:22.815Z,78.60
2018-12-17T23:37:26.957Z,79.00
2018-12-17T23:41:31.037Z,79.00
2018-12-17T23:45:35.260Z,78.20
2018-12-17T23:49:39.473Z,78.30
2018-12-17T23:53:43.560Z,78.20
2018-12-17T23:57:47.629Z,77.40
